Flight Track Log - Related Links

Times and Time Zones

All times are in EDT time to prevent confusion due to time zone crossing. See the XOJ552 flight status page for this flight to view local times or setup timezone preferences in your user account.

Time Position Orientation Groundspeed Altitude Reporting Facility
EDT Latitude Longitude Course Direction KTS MPH feet Rate Location/Type
Sat 10:02:25 PM 49.1667 -123.1833 168° South 100 115 1,200  Level Vancouver Center
Sat 10:03:25 PM 49.1500 -123.2833 256° West 240 276 6,000 4,800 Climbing Vancouver Center
Sat 10:04:25 PM 49.0833 -123.2833 180° South 280 322 10,800 2,550 Climbing Vancouver Center
Sat 10:05:25 PM 48.9833 -123.2333 162° South 320 368 11,100 100 Climbing Vancouver Center
Sat 10:06:25 PM 48.9000 -123.2167 173° South 350 403 11,000 -50 Descending Vancouver Center
Sat 10:07:00 PM 48.9076 -123.0914 168° South  Level FlightAware Approximate
Sat 10:07:25 PM 48.8000 -123.1667 162° South 350 403 11,000  Level Vancouver Center
Sat 10:08:25 PM 48.7167 -123.1167 158° South 350 403 11,000  Level Vancouver Center
Sat 10:09:25 PM 48.6167 -123.1000 174° South 350 403 11,000  Level Vancouver Center
Sat 10:10:05 PM 48.5836 -123.0703 149° Southeast 354 407 11,000  Level Seattle Center
Sat 10:11:06 PM 48.4733 -123.0244 165° South 349 402 11,000  Level Seattle Center
Sat 10:12:07 PM 48.3817 -122.9850 164° South 347 399 11,000  Level Seattle Center
Sat 10:12:40 PM 48.3233 -122.9644 167° South 350 403 11,000 68 Level Seattle Center
Sat 10:13:35 PM 48.2392 -122.9275 164° South 352 405 11,100  Climbing Seattle Center
Sat 10:14:08 PM 48.1919 -122.9100 166° South 350 403 11,000 -90 Descending Seattle Center
Sat 10:14:42 PM 48.1381 -122.8864 164° South 351 404 11,000  Level Seattle Center
Sat 10:15:43 PM 48.0372 -122.8456 165° South 349 402 11,000 -197 Level Seattle Center
Sat 10:16:44 PM 47.9528 -122.7728 150° Southeast 355 409 10,600 -443 Descending Seattle Center
Sat 10:17:45 PM 47.8675 -122.6972 149° Southeast 358 412 10,100 -295 Descending Seattle Center
Sat 10:18:46 PM 47.7764 -122.6156 149° Southeast 370 426 10,000 -50 Descending Seattle Center
Sat 10:19:46 PM 47.6928 -122.5394 148° Southeast 358 412 10,000 50 Level Seattle Center
Sat 10:20:47 PM 47.6128 -122.4683 149° Southeast 335 386 10,100  Climbing Seattle Center
Sat 10:21:48 PM 47.5275 -122.4464 170° South 259 298 10,000 -344 Descending Seattle Center
Sat 10:22:49 PM 47.4653 -122.4381 175° South 217 250 9,400 -1,033 Descending Seattle Center
Sat 10:23:50 PM 47.3989 -122.4219 171° South 240 276 7,900 -1,525 Descending Seattle Center
Sat 10:24:51 PM 47.3775 -122.3192 107° East 257 296 6,300 -1,594 Descending Seattle Center
Sat 10:25:58 PM 47.3583 -122.2183 106° East 235 270 4,500 -1,574 Descending Seattle Center
Sat 10:26:53 PM 47.4014 -122.1947 20° North 231 266 3,100 -1,513 Descending Seattle Center
Sat 10:27:53 PM 47.4553 -122.2403 330° Northwest 202 232 1,600 -1,091 Descending Seattle Center
Sat 10:28:54 PM 47.4942 -122.2714 332° Northwest 140 161 900 -492 Descending Seattle Center
Sat 10:29:55 PM 47.5253 -122.2803 349° North 131 151 600 -295 Descending Seattle Center

Login

Don't have an account? Register now (free) for customized features, flight alerts, and more!